Rodney Mitchell — WCV8372 — position and weather

sailwx.info

Track history (hours):
 
Tides and Currents Weather Stations Pressure Air Temp Water Temp Dewpoint Dewpoint Depression Visibility Wind Speed Wind Dir Waves Ship Positions

Rodney Mitchell

Owner: VINTON CROSBY INC, GOLDEN MEADOW, LA. More information available from US FCC via Universal Licensing System and Coast Guard Vessel Documentation Center.

Last reported at 2016-Feb-11 10:34 UTC. Time now 2016-Feb-11 10:43 UTC.
Position N 29°33' W 090°42'.

; draft 3 m.

Type: Towing. MMSI: 367028860.

Date/timePositionNaut miles runAvg speedWind from/ knotsBaromVisibWave heightAir tempDewpointWater temp
2016-Feb-11 10:34N 29°33' W 090°42'0 0.0
2016-Feb-11 09:33N 29°33' W 090°42'0 0.0
2016-Feb-11 08:34N 29°33' W 090°42'0 0.0
2016-Feb-11 07:33N 29°33' W 090°42'0 0.0
2016-Feb-11 06:33N 29°33' W 090°42'0 0.0
2016-Feb-11 05:33N 29°33' W 090°42'0 0.0
2016-Feb-11 04:33N 29°33' W 090°42'0 0.0
2016-Feb-11 03:33N 29°33' W 090°42'0 0.0
2016-Feb-11 02:33N 29°33' W 090°42'0 0.0
2016-Feb-11 01:33N 29°33' W 090°42'0 0.0
2016-Feb-11 00:33N 29°33' W 090°42'0 0.0
2016-Feb-10 23:33N 29°33' W 090°42'0 0.0
2016-Feb-10 22:33N 29°33' W 090°42'0 0.0
2016-Feb-10 21:33N 29°33' W 090°42'0 0.0
2016-Feb-10 20:34N 29°33' W 090°42'0 0.0
2016-Feb-10 19:33N 29°33' W 090°42'0 0.0
2016-Feb-10 18:33N 29°33' W 090°42'0 0.0
2016-Feb-10 17:33N 29°33' W 090°42'0 0.0
2016-Feb-10 16:33N 29°33' W 090°42'0 0.0
2016-Feb-10 15:33N 29°33' W 090°42'0 0.0
2016-Feb-10 14:34N 29°33' W 090°42'0 0.0
2016-Feb-10 13:33N 29°33' W 090°42'0 0.0
2016-Feb-10 12:33N 29°33' W 090°42'0 0.0
2016-Feb-10 11:34N 29°33' W 090°42'0 0.1
2016-Feb-10 10:33N 29°33' W 090°42'0 0.0
2016-Feb-10 09:33N 29°33' W 090°42'0 0.0
2016-Feb-10 08:34N 29°33' W 090°42'0 0.0
2016-Feb-10 07:33N 29°33' W 090°42'1 1.4
2016-Feb-10 06:33N 29°34' W 090°43'1 0.9
2016-Feb-10 05:34N 29°35' W 090°43'6 6.2
2016-Feb-10 04:33N 29°32' W 090°49'7 6.8
2016-Feb-10 03:32N 29°34' W 090°57'105 5.0
2016-Feb-09 06:33N 29°56' W 092°55'6 5.9
2016-Feb-09 05:33N 29°56' W 093°02'6 6.0
2016-Feb-09 04:33N 29°56' W 093°09'6 5.7
2016-Feb-09 03:33N 29°60' W 093°13'1 1.1
2016-Feb-09 02:33N 30°01' W 093°14'5 5.3
2016-Feb-09 01:34N 30°05' W 093°18'3 2.7
2016-Feb-09 00:33N 30°04' W 093°20'6 6.2
2016-Feb-08 23:34N 30°04' W 093°27'7 6.8
2016-Feb-08 22:33N 30°04' W 093°35'6 6.2
2016-Feb-08 21:33N 30°03' W 093°43'10 1.4
2016-Feb-08 14:28N 29°58' W 093°52'0 0.0
2016-Feb-08 13:33N 29°58' W 093°52'0 0.0
2016-Feb-08 12:33N 29°58' W 093°52'0 0.0
2016-Feb-08 11:33N 29°58' W 093°52'0 0.0
2016-Feb-08 10:33N 29°58' W 093°52'0 0.0
2016-Feb-08 09:33N 29°58' W 093°52'0 0.0
2016-Feb-08 08:33N 29°58' W 093°52'0 0.0
2016-Feb-08 07:33N 29°58' W 093°52'0 0.0
2016-Feb-08 06:34N 29°58' W 093°52'0 0.0
2016-Feb-08 05:34N 29°58' W 093°52'0 0.0
2016-Feb-08 04:33N 29°58' W 093°52'0 0.0
2016-Feb-08 03:34N 29°58' W 093°52'0 0.0
2016-Feb-08 02:29N 29°58' W 093°52'0 0.0
2016-Feb-08 01:31N 29°58' W 093°52'0 0.0
2016-Feb-08 00:10N 29°58' W 093°52'0 0.0
2016-Feb-07 23:18N 29°58' W 093°52'28 3.9
2016-Feb-07 16:06N 29°39' W 094°16'4 4.6
2016-Feb-07 15:12N 29°37' W 094°20'40 1.4
2016-Feb-06 10:34N 29°46' W 095°05'2 2.2
2016-Feb-06 09:34N 29°48' W 095°04'2 1.5
2016-Feb-06 08:13N 29°46' W 095°05'1 0.0
2016-Feb-05 20:15N 29°46' W 095°06'0 0.0
2016-Feb-05 16:18N 29°46' W 095°06'0 0.0
2016-Feb-05 14:33N 29°46' W 095°06'0 0.0
2016-Feb-05 13:30N 29°46' W 095°06'0 0.0
2016-Feb-05 12:26N 29°46' W 095°06'0 0.0
2016-Feb-05 11:27N 29°46' W 095°06'0 0.0
2016-Feb-05 10:32N 29°46' W 095°06'0 0.0
2016-Feb-05 09:33N 29°46' W 095°06'0 0.0
2016-Feb-05 08:28N 29°46' W 095°06'0 0.0
2016-Feb-05 07:11N 29°46' W 095°06'0 0.0
2016-Feb-05 06:24N 29°46' W 095°06'0 0.0
2016-Feb-05 05:33N 29°46' W 095°06'0 0.0
2016-Feb-05 04:31N 29°46' W 095°06'0 0.0
2016-Feb-05 03:31N 29°46' W 095°06'0 0.0
2016-Feb-05 02:34N 29°46' W 095°06'0 0.0
2016-Feb-05 01:33N 29°46' W 095°06'2 1.9
2016-Feb-05 00:32N 29°47' W 095°04'2 0.9
2016-Feb-04 22:32N 29°46' W 095°06'0 0.0
2016-Feb-04 21:30N 29°46' W 095°06'0 0.0
2016-Feb-04 20:33N 29°46' W 095°06'2 0.6
2016-Feb-04 17:33N 29°44' W 095°07'6 5.4
2016-Feb-04 16:29N 29°44' W 095°13'0 0.0
2016-Feb-04 15:14N 29°44' W 095°13'1 0.6
2016-Feb-04 13:32N 29°43' W 095°15'0 0.0
2016-Feb-04 12:20N 29°43' W 095°15'0 0.1
2016-Feb-04 11:33N 29°43' W 095°15'4 3.8
2016-Feb-04 10:34N 29°45' W 095°11'4 4.2
2016-Feb-04 09:33N 29°45' W 095°06'1 0.1
2016-Feb-03 22:30N 29°46' W 095°06'0 0.2
2016-Feb-03 20:27N 29°45' W 095°06'0 0.1
2016-Feb-03 15:25N 29°46' W 095°06'0 0.0
2016-Feb-02 23:22N 29°46' W 095°06'2 2.4
2016-Feb-02 22:34N 29°45' W 095°04'4 4.5
2016-Feb-02 21:34N 29°42' W 094°60'5 4.8
2016-Feb-02 20:34N 29°38' W 094°58'5 5.1
2016-Feb-02 19:34N 29°33' W 094°55'5 5.3
2016-Feb-02 18:34N 29°29' W 094°51'5 5.2
2016-Feb-02 17:32N 29°24' W 094°49'5 0.5
2016-Feb-02 07:08N 29°25' W 094°44'0 0.0
2016-Feb-02 04:33N 29°25' W 094°44'0 0.0
2016-Feb-02 00:34N 29°25' W 094°44'0 0.0
2016-Feb-01 23:33N 29°25' W 094°44'0 0.0
2016-Feb-01 22:31N 29°25' W 094°44'0 0.0
2016-Feb-01 20:06N 29°25' W 094°44'0 0.0
2016-Feb-01 12:22N 29°25' W 094°44'  
Track history (hours):
 
Tides and Currents Weather Stations Pressure Air Temp Water Temp Dewpoint Dewpoint Depression Visibility Wind Speed Wind Dir Waves Ship Positions

Rodney Mitchell

Owner: VINTON CROSBY INC, GOLDEN MEADOW, LA. More information available from US FCC via Universal Licensing System and Coast Guard Vessel Documentation Center.

Last reported at 2016-Feb-11 10:34 UTC. Time now 2016-Feb-11 10:43 UTC.
Position N 29°33' W 090°42'.

; draft 3 m.

Type: Towing. MMSI: 367028860.

Date/timePositionNaut miles runAvg speedWind from/ knotsBaromVisibWave heightAir tempDewpointWater temp
2016-Feb-11 10:34N 29°33' W 090°42'0 0.0
2016-Feb-11 09:33N 29°33' W 090°42'0 0.0
2016-Feb-11 08:34N 29°33' W 090°42'0 0.0
2016-Feb-11 07:33N 29°33' W 090°42'0 0.0
2016-Feb-11 06:33N 29°33' W 090°42'0 0.0
2016-Feb-11 05:33N 29°33' W 090°42'0 0.0
2016-Feb-11 04:33N 29°33' W 090°42'0 0.0
2016-Feb-11 03:33N 29°33' W 090°42'0 0.0
2016-Feb-11 02:33N 29°33' W 090°42'0 0.0
2016-Feb-11 01:33N 29°33' W 090°42'0 0.0
2016-Feb-11 00:33N 29°33' W 090°42'0 0.0
2016-Feb-10 23:33N 29°33' W 090°42'0 0.0
2016-Feb-10 22:33N 29°33' W 090°42'0 0.0
2016-Feb-10 21:33N 29°33' W 090°42'0 0.0
2016-Feb-10 20:34N 29°33' W 090°42'0 0.0
2016-Feb-10 19:33N 29°33' W 090°42'0 0.0
2016-Feb-10 18:33N 29°33' W 090°42'0 0.0
2016-Feb-10 17:33N 29°33' W 090°42'0 0.0
2016-Feb-10 16:33N 29°33' W 090°42'0 0.0
2016-Feb-10 15:33N 29°33' W 090°42'0 0.0
2016-Feb-10 14:34N 29°33' W 090°42'0 0.0
2016-Feb-10 13:33N 29°33' W 090°42'0 0.0
2016-Feb-10 12:33N 29°33' W 090°42'0 0.0
2016-Feb-10 11:34N 29°33' W 090°42'0 0.1
2016-Feb-10 10:33N 29°33' W 090°42'0 0.0
2016-Feb-10 09:33N 29°33' W 090°42'0 0.0
2016-Feb-10 08:34N 29°33' W 090°42'0 0.0
2016-Feb-10 07:33N 29°33' W 090°42'1 1.4
2016-Feb-10 06:33N 29°34' W 090°43'1 0.9
2016-Feb-10 05:34N 29°35' W 090°43'6 6.2
2016-Feb-10 04:33N 29°32' W 090°49'7 6.8
2016-Feb-10 03:32N 29°34' W 090°57'105 5.0
2016-Feb-09 06:33N 29°56' W 092°55'6 5.9
2016-Feb-09 05:33N 29°56' W 093°02'6 6.0
2016-Feb-09 04:33N 29°56' W 093°09'6 5.7
2016-Feb-09 03:33N 29°60' W 093°13'1 1.1
2016-Feb-09 02:33N 30°01' W 093°14'5 5.3
2016-Feb-09 01:34N 30°05' W 093°18'3 2.7
2016-Feb-09 00:33N 30°04' W 093°20'6 6.2
2016-Feb-08 23:34N 30°04' W 093°27'7 6.8
2016-Feb-08 22:33N 30°04' W 093°35'6 6.2
2016-Feb-08 21:33N 30°03' W 093°43'10 1.4
2016-Feb-08 14:28N 29°58' W 093°52'0 0.0
2016-Feb-08 13:33N 29°58' W 093°52'0 0.0
2016-Feb-08 12:33N 29°58' W 093°52'0 0.0
2016-Feb-08 11:33N 29°58' W 093°52'0 0.0
2016-Feb-08 10:33N 29°58' W 093°52'0 0.0
2016-Feb-08 09:33N 29°58' W 093°52'0 0.0
2016-Feb-08 08:33N 29°58' W 093°52'0 0.0
2016-Feb-08 07:33N 29°58' W 093°52'0 0.0
2016-Feb-08 06:34N 29°58' W 093°52'0 0.0
2016-Feb-08 05:34N 29°58' W 093°52'0 0.0
2016-Feb-08 04:33N 29°58' W 093°52'0 0.0
2016-Feb-08 03:34N 29°58' W 093°52'0 0.0
2016-Feb-08 02:29N 29°58' W 093°52'0 0.0
2016-Feb-08 01:31N 29°58' W 093°52'0 0.0
2016-Feb-08 00:10N 29°58' W 093°52'0 0.0
2016-Feb-07 23:18N 29°58' W 093°52'28 3.9
2016-Feb-07 16:06N 29°39' W 094°16'4 4.6
2016-Feb-07 15:12N 29°37' W 094°20'40 1.4
2016-Feb-06 10:34N 29°46' W 095°05'2 2.2
2016-Feb-06 09:34N 29°48' W 095°04'2 1.5
2016-Feb-06 08:13N 29°46' W 095°05'1 0.0
2016-Feb-05 20:15N 29°46' W 095°06'0 0.0
2016-Feb-05 16:18N 29°46' W 095°06'0 0.0
2016-Feb-05 14:33N 29°46' W 095°06'0 0.0
2016-Feb-05 13:30N 29°46' W 095°06'0 0.0
2016-Feb-05 12:26N 29°46' W 095°06'0 0.0
2016-Feb-05 11:27N 29°46' W 095°06'0 0.0
2016-Feb-05 10:32N 29°46' W 095°06'0 0.0
2016-Feb-05 09:33N 29°46' W 095°06'0 0.0
2016-Feb-05 08:28N 29°46' W 095°06'0 0.0
2016-Feb-05 07:11N 29°46' W 095°06'0 0.0
2016-Feb-05 06:24N 29°46' W 095°06'0 0.0
2016-Feb-05 05:33N 29°46' W 095°06'0 0.0
2016-Feb-05 04:31N 29°46' W 095°06'0 0.0
2016-Feb-05 03:31N 29°46' W 095°06'0 0.0
2016-Feb-05 02:34N 29°46' W 095°06'0 0.0
2016-Feb-05 01:33N 29°46' W 095°06'2 1.9
2016-Feb-05 00:32N 29°47' W 095°04'2 0.9
2016-Feb-04 22:32N 29°46' W 095°06'0 0.0
2016-Feb-04 21:30N 29°46' W 095°06'0 0.0
2016-Feb-04 20:33N 29°46' W 095°06'2 0.6
2016-Feb-04 17:33N 29°44' W 095°07'6 5.4
2016-Feb-04 16:29N 29°44' W 095°13'0 0.0
2016-Feb-04 15:14N 29°44' W 095°13'1 0.6
2016-Feb-04 13:32N 29°43' W 095°15'0 0.0
2016-Feb-04 12:20N 29°43' W 095°15'0 0.1
2016-Feb-04 11:33N 29°43' W 095°15'4 3.8
2016-Feb-04 10:34N 29°45' W 095°11'4 4.2
2016-Feb-04 09:33N 29°45' W 095°06'1 0.1
2016-Feb-03 22:30N 29°46' W 095°06'0 0.2
2016-Feb-03 20:27N 29°45' W 095°06'0 0.1
2016-Feb-03 15:25N 29°46' W 095°06'0 0.0
2016-Feb-02 23:22N 29°46' W 095°06'2 2.4
2016-Feb-02 22:34N 29°45' W 095°04'4 4.5
2016-Feb-02 21:34N 29°42' W 094°60'5 4.8
2016-Feb-02 20:34N 29°38' W 094°58'5 5.1
2016-Feb-02 19:34N 29°33' W 094°55'5 5.3
2016-Feb-02 18:34N 29°29' W 094°51'5 5.2
2016-Feb-02 17:32N 29°24' W 094°49'5 0.5
2016-Feb-02 07:08N 29°25' W 094°44'0 0.0
2016-Feb-02 04:33N 29°25' W 094°44'0 0.0
2016-Feb-02 00:34N 29°25' W 094°44'0 0.0
2016-Feb-01 23:33N 29°25' W 094°44'0 0.0
2016-Feb-01 22:31N 29°25' W 094°44'0 0.0
2016-Feb-01 20:06N 29°25' W 094°44'0 0.0
2016-Feb-01 12:22N 29°25' W 094°44'  

Dump ship's entire track history